Time;durP1;ratioP1;P1;durP2;ratioP2;P2;SDS_P1;SDS_P2;PMS_P1;PMS_P2;Temp;Humidity;BMP_temperature;BMP_pressure;BME280_temperature;BME280_humidity;BME280_pressure;Samples;Min_cycle;Max_cycle;Signal;HPM_P1;HPM_P2
2022/12/18 00:01:34;;;;;;;0.70;0.70;;;-4.40;94.50;;;;;;5073394;28;20174;-66
2022/12/18 00:04:02;;;;;;;0.73;0.73;;;-4.50;94.40;;;;;;5073247;28;20170;-66
2022/12/18 00:06:29;;;;;;;1.35;1.35;;;-4.50;94.40;;;;;;5073182;28;20252;-67
2022/12/18 00:08:57;;;;;;;3.35;3.25;;;-4.40;94.50;;;;;;5073185;28;20211;-67
2022/12/18 00:11:25;;;;;;;0.50;0.50;;;-4.30;94.30;;;;;;5073232;28;20185;-67
2022/12/18 00:13:52;;;;;;;0.55;0.55;;;-4.30;94.30;;;;;;5072465;28;20744;-66
2022/12/18 00:16:21;;;;;;;0.65;0.65;;;-4.40;94.30;;;;;;5073168;28;20585;-67
2022/12/18 00:18:48;;;;;;;0.80;0.80;;;-4.40;94.40;;;;;;5073296;28;20277;-66
2022/12/18 00:21:15;;;;;;;1.67;1.58;;;-4.40;94.20;;;;;;5073053;28;20174;-67
2022/12/18 00:23:42;;;;;;;0.60;0.60;;;-4.40;94.10;;;;;;5072951;28;20589;-67
2022/12/18 00:26:13;;;;;;;0.70;0.70;;;-4.40;94.10;;;;;;5072761;28;20631;-66
2022/12/18 00:28:38;;;;;;;0.82;0.82;;;-4.50;93.90;;;;;;5073150;28;20204;-67
2022/12/18 00:31:06;;;;;;;0.47;0.47;;;-4.60;93.90;;;;;;5073023;28;20169;-67
2022/12/18 00:33:33;;;;;;;0.60;0.60;;;-4.70;94.00;;;;;;5073208;28;20174;-66
2022/12/18 00:36:06;;;;;;;1.70;1.65;;;-4.70;94.00;;;;;;5072606;28;20546;-67
2022/12/18 00:38:33;;;;;;;1.13;1.13;;;-4.60;93.60;;;;;;5073314;28;20201;-66
2022/12/18 00:40:59;;;;;;;0.90;0.90;;;-4.60;93.50;;;;;;5076794;28;20174;-67
2022/12/18 00:43:25;;;;;;;0.70;0.70;;;-4.60;93.50;;;;;;5076809;28;20176;-66
2022/12/18 00:45:51;;;;;;;3.40;3.07;;;-4.60;93.60;;;;;;5076573;28;20222;-66
2022/12/18 00:48:16;;;;;;;1.07;1.07;;;-4.70;98.10;;;;;;5076350;28;20455;-65
2022/12/18 00:50:42;;;;;;;3.80;2.30;;;-4.70;93.70;;;;;;5076488;28;20170;-67
2022/12/18 00:53:11;;;;;;;0.63;0.63;;;-4.70;93.70;;;;;;5076386;28;20564;-66
2022/12/18 00:55:40;;;;;;;2.00;1.90;;;-4.90;93.70;;;;;;5076369;28;20177;-67
2022/12/18 00:58:07;;;;;;;0.70;0.70;;;-4.80;97.90;;;;;;5076310;28;20178;-66
2022/12/18 01:00:32;;;;;;;1.73;1.67;;;-4.80;93.80;;;;;;5076451;28;20177;-66
2022/12/18 01:02:58;;;;;;;0.70;0.70;;;-4.80;93.70;;;;;;5076411;28;20224;-65
2022/12/18 01:05:24;;;;;;;15.63;2.43;;;-4.90;93.70;;;;;;5076204;28;20208;-67
2022/12/18 01:07:49;;;;;;;0.70;0.70;;;-4.90;93.80;;;;;;5076135;28;20284;-67
2022/12/18 01:10:15;;;;;;;0.70;0.70;;;-4.80;93.90;;;;;;5076106;28;20424;-66
2022/12/18 01:12:41;;;;;;;0.80;0.80;;;-4.80;94.10;;;;;;5074861;28;20201;-65
2022/12/18 01:15:09;;;;;;;0.60;0.60;;;-4.80;93.80;;;;;;5075983;28;20166;-67
2022/12/18 01:17:35;;;;;;;0.77;0.77;;;-4.90;93.80;;;;;;5076154;28;20235;-66
2022/12/18 01:20:01;;;;;;;0.68;0.68;;;-5.00;93.90;;;;;;5075988;28;20193;-65
2022/12/18 01:22:28;;;;;;;0.68;0.68;;;-4.90;93.80;;;;;;5076350;28;20177;-67
2022/12/18 01:24:54;;;;;;;0.60;0.60;;;-4.90;93.70;;;;;;5075741;28;20172;-67
2022/12/18 01:27:20;;;;;;;0.67;0.67;;;-5.10;93.60;;;;;;5075932;28;20174;-66
2022/12/18 01:29:45;;;;;;;0.60;0.60;;;-5.00;93.80;;;;;;5074959;28;20427;-67
2022/12/18 01:32:11;;;;;;;0.53;0.53;;;-5.10;93.80;;;;;;5075361;28;20235;-67
2022/12/18 01:34:37;;;;;;;1.03;1.03;;;-5.00;93.90;;;;;;5075529;28;20169;-66
2022/12/18 01:37:06;;;;;;;1.05;1.05;;;-5.00;93.70;;;;;;5075464;28;20235;-66
2022/12/18 01:39:32;;;;;;;0.98;0.98;;;-5.00;93.40;;;;;;5075426;28;20197;-67
2022/12/18 01:42:02;;;;;;;0.93;0.70;;;-5.00;93.40;;;;;;5075476;28;20201;-67
2022/12/18 01:44:58;;;;;;;0.70;0.70;;;-5.00;93.30;;;;;;5075473;28;20169;-67
2022/12/18 01:47:44;;;;;;;0.70;0.70;;;-5.10;93.30;;;;;;5075345;28;20173;-67
2022/12/18 01:50:31;;;;;;;0.70;0.70;;;-5.10;93.40;;;;;;5074871;28;20189;-67
2022/12/18 01:53:16;;;;;;;0.65;0.65;;;-5.10;93.50;;;;;;5075306;28;20172;-67
2022/12/18 01:55:54;;;;;;;0.73;0.73;;;-5.00;93.50;;;;;;5075405;28;20176;-67
2022/12/18 01:58:32;;;;;;;0.50;0.50;;;-5.00;93.50;;;;;;5075157;28;20197;-67
2022/12/18 02:00:58;;;;;;;2.95;2.85;;;-5.00;93.40;;;;;;5075214;28;20577;-67
2022/12/18 02:03:23;;;;;;;0.80;0.80;;;-5.00;93.10;;;;;;5075427;28;20177;-67
2022/12/18 02:06:11;;;;;;;0.60;0.60;;;-5.00;92.90;;;;;;5074961;28;20173;-67
2022/12/18 02:09:08;;;;;;;0.70;0.70;;;-5.10;92.70;;;;;;5075077;28;20209;-67
2022/12/18 02:11:49;;;;;;;0.70;0.70;;;-5.10;92.80;;;;;;5075226;28;20184;-69
2022/12/18 02:14:23;;;;;;;0.57;0.57;;;-5.10;92.90;;;;;;5074952;28;20218;-67
2022/12/18 02:17:01;;;;;;;0.60;0.60;;;-5.10;92.90;;;;;;5075129;28;20218;-67
2022/12/18 02:19:55;;;;;;;0.60;0.60;;;-5.00;92.80;;;;;;5075120;28;20550;-66
2022/12/18 02:22:33;;;;;;;1.00;1.00;;;-5.00;92.80;;;;;;5075035;28;20173;-66
2022/12/18 02:25:19;;;;;;;0.73;0.73;;;-5.10;92.80;;;;;;5074591;28;20170;-67
2022/12/18 02:27:48;;;;;;;0.50;0.50;;;-5.10;92.80;;;;;;5073489;28;20237;-67
2022/12/18 02:30:15;;;;;;;0.60;0.60;;;-5.10;92.70;;;;;;5074580;28;20646;-67
2022/12/18 02:32:45;;;;;;;0.85;0.85;;;-5.20;92.60;;;;;;5074704;28;20501;-67
2022/12/18 02:35:20;;;;;;;0.70;0.70;;;-5.20;92.50;;;;;;5074366;28;20176;-67
2022/12/18 02:37:47;;;;;;;0.77;0.77;;;-5.20;92.50;;;;;;5074577;28;20199;-69
2022/12/18 02:40:15;;;;;;;0.98;0.98;;;-5.30;92.60;;;;;;5074372;28;20197;-67
2022/12/18 02:42:41;;;;;;;0.60;0.60;;;-5.40;92.70;;;;;;5074475;28;20169;-67
2022/12/18 02:45:07;;;;;;;0.77;0.77;;;-5.30;92.80;;;;;;5074263;28;20178;-66
2022/12/18 02:47:36;;;;;;;0.60;0.60;;;-5.30;92.80;;;;;;5074191;28;20397;-66
2022/12/18 02:50:33;;;;;;;0.68;0.68;;;-5.30;92.80;;;;;;5074326;28;20189;-67
2022/12/18 02:53:03;;;;;;;0.85;0.85;;;-5.30;92.60;;;;;;5074354;28;20629;-67
2022/12/18 02:55:32;;;;;;;4.10;2.15;;;-5.20;92.50;;;;;;5073992;28;20169;-66
2022/12/18 02:58:16;;;;;;;0.50;0.50;;;-5.30;92.50;;;;;;5074041;28;20207;-66
2022/12/18 03:01:11;;;;;;;2.78;2.45;;;-5.30;92.40;;;;;;5073830;28;20157;-66
2022/12/18 03:04:02;;;;;;;0.70;0.70;;;-5.40;92.30;;;;;;5073605;28;20200;-67
2022/12/18 03:06:41;;;;;;;0.88;0.88;;;-5.40;92.30;;;;;;5074005;28;20639;-67
2022/12/18 03:09:12;;;;;;;0.60;0.60;;;-5.30;92.40;;;;;;5073840;28;20697;-66
2022/12/18 03:14:32;;;;;;;0.60;0.60;;;-5.40;92.50;;;;;;5074074;28;20275;-66
2022/12/18 03:17:02;;;;;;;0.75;0.75;;;-5.40;92.30;;;;;;5073854;28;20626;-67
2022/12/18 03:19:31;;;;;;;0.70;0.70;;;-5.50;92.20;;;;;;5072408;28;20681;-67
2022/12/18 03:22:00;;;;;;;0.60;0.60;;;-5.60;92.30;;;;;;5073975;28;20260;-66
2022/12/18 03:24:29;;;;;;;0.65;0.65;;;-5.60;92.30;;;;;;5073679;28;20243;-67
2022/12/18 03:27:00;;;;;;;0.98;0.98;;;-5.70;92.20;;;;;;5073858;28;20518;-67
2022/12/18 03:29:43;;;;;;;0.68;0.68;;;-5.80;92.10;;;;;;5073675;28;20205;-66
2022/12/18 03:32:18;;;;;;;0.60;0.60;;;-5.80;91.90;;;;;;5074159;28;20593;-67
2022/12/18 03:34:48;;;;;;;0.60;0.60;;;-5.80;91.80;;;;;;5073555;28;20180;-67
2022/12/18 03:37:13;;;;;;;0.55;0.55;;;-5.90;91.80;;;;;;5073422;28;20527;-66
2022/12/18 03:39:39;;;;;;;0.47;0.47;;;-6.00;92.00;;;;;;5073564;28;20196;-67
2022/12/18 03:42:14;;;;;;;0.60;0.60;;;-6.00;92.10;;;;;;5073565;28;20276;-65
2022/12/18 03:44:47;;;;;;;0.70;0.70;;;-6.00;92.20;;;;;;5073462;28;20165;-66
2022/12/18 03:47:35;;;;;;;0.70;0.70;;;-5.90;92.10;;;;;;5073643;28;20166;-66
2022/12/18 03:50:37;;;;;;;0.60;0.60;;;-6.00;92.10;;;;;;5073394;28;20281;-66
2022/12/18 03:53:17;;;;;;;0.60;0.60;;;-6.10;92.00;;;;;;5070891;28;20191;-67
2022/12/18 03:55:44;;;;;;;0.57;0.57;;;-6.10;92.10;;;;;;5073132;28;20192;-66
2022/12/18 03:58:13;;;;;;;2.38;1.30;;;-6.20;92.10;;;;;;5073214;28;20173;-67
2022/12/18 04:00:39;;;;;;;0.65;0.65;;;-6.20;92.00;;;;;;5073284;28;20258;-67
2022/12/18 04:03:08;;;;;;;0.60;0.60;;;-6.20;92.10;;;;;;5073406;28;20176;-67
2022/12/18 04:05:35;;;;;;;0.70;0.70;;;-6.20;92.00;;;;;;5073317;28;20174;-66
2022/12/18 04:08:01;;;;;;;0.50;0.50;;;-6.20;92.00;;;;;;5073233;28;20189;-65
2022/12/18 04:10:27;;;;;;;0.65;0.65;;;-6.10;92.00;;;;;;5073122;28;20176;-66
2022/12/18 04:12:56;;;;;;;0.70;0.70;;;-6.10;92.00;;;;;;5074306;28;20244;-67
2022/12/18 04:15:23;;;;;;;0.57;0.57;;;-6.10;92.00;;;;;;5077161;28;20884;-66
2022/12/18 04:17:49;;;;;;;0.73;0.73;;;-6.10;91.80;;;;;;5077271;28;20216;-65
2022/12/18 04:20:16;;;;;;;0.50;0.50;;;-6.10;91.70;;;;;;5077077;28;20190;-66
2022/12/18 04:22:42;;;;;;;0.60;0.60;;;-6.10;91.50;;;;;;5077244;28;20621;-66
2022/12/18 04:25:08;;;;;;;0.63;0.63;;;-6.10;91.60;;;;;;5076913;28;20286;-67
2022/12/18 04:27:34;;;;;;;0.70;0.70;;;-6.20;91.50;;;;;;5077178;28;20173;-67
2022/12/18 04:30:00;;;;;;;0.67;0.67;;;-6.30;91.50;;;;;;5077041;28;20219;-66
2022/12/18 04:32:25;;;;;;;0.70;0.70;;;-6.40;91.70;;;;;;5076949;28;20244;-65
2022/12/18 04:34:51;;;;;;;2.73;2.70;;;-6.40;91.80;;;;;;5075454;28;20166;-67
2022/12/18 04:37:17;;;;;;;0.60;0.60;;;-6.40;91.80;;;;;;5076617;28;20185;-66
2022/12/18 04:39:42;;;;;;;0.70;0.70;;;-6.40;91.80;;;;;;5076864;28;20647;-66
2022/12/18 04:42:08;;;;;;;0.93;0.93;;;-6.40;91.70;;;;;;5076681;28;20211;-67
2022/12/18 04:44:34;;;;;;;0.57;0.57;;;-6.40;91.50;;;;;;5076497;28;20180;-65
2022/12/18 04:46:59;;;;;;;0.70;0.70;;;-6.40;91.40;;;;;;5076835;28;20180;-66
2022/12/18 04:49:25;;;;;;;0.60;0.60;;;-6.40;91.40;;;;;;5075064;28;20463;-67
2022/12/18 04:51:51;;;;;;;0.67;0.67;;;-6.40;91.50;;;;;;5076486;28;20161;-67
2022/12/18 04:54:17;;;;;;;0.60;0.60;;;-6.50;91.50;;;;;;5076467;28;20199;-67
2022/12/18 04:56:42;;;;;;;0.70;0.70;;;-6.50;91.60;;;;;;5076440;28;20176;-67
2022/12/18 04:59:08;;;;;;;0.60;0.60;;;-6.50;91.60;;;;;;5076444;28;20560;-66
2022/12/18 05:01:33;;;;;;;0.60;0.60;;;-6.50;91.50;;;;;;5076656;28;20237;-66
2022/12/18 05:03:59;;;;;;;0.60;0.60;;;-6.50;91.60;;;;;;5076417;28;20165;-65
2022/12/18 05:06:25;;;;;;;2.70;2.60;;;-6.60;91.50;;;;;;5076297;28;20538;-67
2022/12/18 05:08:51;;;;;;;0.67;0.67;;;-6.60;91.70;;;;;;5076295;28;20568;-66
2022/12/18 05:11:16;;;;;;;0.50;0.50;;;-6.60;91.70;;;;;;5076159;28;20291;-66
2022/12/18 05:13:44;;;;;;;0.80;0.80;;;-6.60;91.70;;;;;;5076202;28;20162;-66
2022/12/18 05:16:10;;;;;;;0.75;0.75;;;-6.60;91.60;;;;;;5076071;28;20166;-67
2022/12/18 05:18:36;;;;;;;0.60;0.60;;;-6.60;91.60;;;;;;5076032;28;20288;-67
2022/12/18 05:21:02;;;;;;;0.70;0.70;;;-6.70;91.60;;;;;;5076011;28;20244;-67
2022/12/18 05:23:28;;;;;;;0.68;0.68;;;-6.60;91.60;;;;;;5076077;28;20399;-67
2022/12/18 05:26:00;;;;;;;0.70;0.70;;;-6.60;91.50;;;;;;5074871;28;20174;-66
2022/12/18 05:28:28;;;;;;;0.90;0.90;;;-6.70;91.50;;;;;;5075761;28;20221;-66
2022/12/18 05:30:56;;;;;;;0.50;0.50;;;-6.60;91.60;;;;;;5075857;28;20176;-66
2022/12/18 05:33:23;;;;;;;0.60;0.60;;;-6.70;91.40;;;;;;5076000;28;20196;-66
2022/12/18 05:35:59;;;;;;;0.70;0.70;;;-6.70;91.40;;;;;;5075378;28;20169;-67
2022/12/18 05:38:27;;;;;;;0.80;0.80;;;-6.70;91.50;;;;;;5075644;28;20196;-66
2022/12/18 05:40:53;;;;;;;0.60;0.60;;;-6.60;91.50;;;;;;5075825;28;20545;-66
2022/12/18 05:43:21;;;;;;;0.77;0.77;;;-6.50;91.30;;;;;;5075786;28;20170;-66
2022/12/18 05:45:47;;;;;;;0.52;0.52;;;-6.60;91.30;;;;;;5074258;28;20647;-66
2022/12/18 05:48:13;;;;;;;2.53;2.47;;;-6.60;91.20;;;;;;5074294;28;20564;-67
2022/12/18 05:50:41;;;;;;;0.65;0.65;;;-6.60;91.10;;;;;;5075910;28;20170;-66
2022/12/18 05:53:07;;;;;;;0.75;0.75;;;-6.60;91.30;;;;;;5075379;28;20244;-67
2022/12/18 05:55:38;;;;;;;0.60;0.60;;;-6.70;91.30;;;;;;5075265;28;20184;-66
2022/12/18 05:58:05;;;;;;;0.60;0.60;;;-6.70;91.40;;;;;;5075497;28;20169;-67
2022/12/18 06:00:32;;;;;;;0.63;0.63;;;-6.70;91.60;;;;;;5075326;28;20170;-67
2022/12/18 06:02:58;;;;;;;2.50;2.30;;;-6.80;91.60;;;;;;5075351;28;20177;-67
2022/12/18 06:05:24;;;;;;;0.55;0.55;;;-6.70;91.70;;;;;;5074922;28;20177;-66
2022/12/18 06:07:50;;;;;;;0.63;0.63;;;-6.60;91.50;;;;;;5075091;28;20201;-66
2022/12/18 06:10:16;;;;;;;0.50;0.50;;;-6.60;91.30;;;;;;5075013;28;20692;-66
2022/12/18 06:12:41;;;;;;;0.70;0.70;;;-6.70;91.10;;;;;;5075210;28;20641;-65
2022/12/18 06:15:07;;;;;;;0.50;0.50;;;-6.70;91.20;;;;;;5074773;28;20166;-66
2022/12/18 06:17:34;;;;;;;0.60;0.60;;;-6.70;91.30;;;;;;5075052;28;20223;-67
2022/12/18 06:20:00;;;;;;;0.50;0.50;;;-6.80;91.20;;;;;;5074747;28;20242;-65
2022/12/18 06:22:26;;;;;;;0.80;0.80;;;-6.80;91.30;;;;;;5075007;28;20165;-65
2022/12/18 06:24:51;;;;;;;0.70;0.70;;;-6.80;91.40;;;;;;5074645;28;20192;-67
2022/12/18 06:27:17;;;;;;;0.53;0.53;;;-6.80;91.50;;;;;;5073249;28;20442;-67
2022/12/18 06:29:43;;;;;;;0.70;0.70;;;-6.80;91.40;;;;;;5073848;28;20471;-70
2022/12/18 06:32:08;;;;;;;0.50;0.50;;;-6.80;91.20;;;;;;5075310;28;20204;-68
2022/12/18 06:34:36;;;;;;;0.70;0.70;;;-6.80;91.30;;;;;;5073130;28;20256;-70
2022/12/18 06:37:05;;;;;;;0.57;0.57;;;-6.80;91.50;;;;;;5074229;28;20786;-68
2022/12/18 06:39:31;;;;;;;0.50;0.50;;;-6.80;91.40;;;;;;5072756;28;20209;-68
2022/12/18 06:41:57;;;;;;;0.50;0.50;;;-6.80;91.50;;;;;;5074170;28;20182;-68
2022/12/18 06:44:23;;;;;;;0.50;0.50;;;-6.70;91.50;;;;;;5074275;28;20613;-68
2022/12/18 06:46:48;;;;;;;0.50;0.50;;;-6.60;91.50;;;;;;5074449;28;20170;-68
2022/12/18 06:49:15;;;;;;;0.63;0.63;;;-6.60;91.30;;;;;;5072658;28;20315;-68
2022/12/18 06:51:41;;;;;;;0.63;0.63;;;-6.60;91.30;;;;;;5072978;28;20695;-68
2022/12/18 06:54:07;;;;;;;1.13;1.13;;;-6.60;91.30;;;;;;5074035;28;20244;-67
2022/12/18 06:56:32;;;;;;;0.70;0.70;;;-6.70;91.30;;;;;;5074241;28;20765;-68
2022/12/18 06:58:58;;;;;;;0.70;0.70;;;-6.70;91.40;;;;;;5074130;28;20290;-68
2022/12/18 07:01:24;;;;;;;0.67;0.67;;;-6.70;91.30;;;;;;5073989;28;20647;-68
2022/12/18 07:03:54;;;;;;;0.63;0.63;;;-6.70;91.20;;;;;;5074465;28;20533;-68
2022/12/18 07:06:21;;;;;;;0.52;0.52;;;-6.80;91.10;;;;;;5073843;28;20162;-69
2022/12/18 07:08:48;;;;;;;0.63;0.63;;;-6.80;91.20;;;;;;5073996;28;20343;-67
2022/12/18 07:11:15;;;;;;;0.60;0.60;;;-6.80;91.30;;;;;;5073911;28;20299;-68
2022/12/18 07:13:40;;;;;;;1.80;1.77;;;-6.80;91.40;;;;;;5074061;28;20178;-68
2022/12/18 07:16:08;;;;;;;0.80;0.80;;;-6.70;91.50;;;;;;5072249;28;20515;-68
2022/12/18 07:18:34;;;;;;;0.50;0.50;;;-6.60;91.40;;;;;;5072246;28;20202;-69
2022/12/18 07:21:04;;;;;;;0.50;0.50;;;-6.50;91.40;;;;;;5074117;28;20174;-66
2022/12/18 07:23:30;;;;;;;0.40;0.40;;;-6.50;91.20;;;;;;5074167;28;20469;-66
2022/12/18 07:25:55;;;;;;;0.70;0.70;;;-6.50;91.10;;;;;;5074137;28;20182;-66
2022/12/18 07:28:21;;;;;;;0.73;0.73;;;-6.50;91.10;;;;;;5073731;28;20193;-66
2022/12/18 07:30:46;;;;;;;0.67;0.67;;;-6.50;91.10;;;;;;5073728;28;20611;-67
2022/12/18 07:33:12;;;;;;;1.03;1.03;;;-6.40;91.10;;;;;;5073636;28;20215;-67
2022/12/18 07:35:38;;;;;;;2.10;2.00;;;-6.30;91.10;;;;;;5073771;28;20615;-67
2022/12/18 07:38:03;;;;;;;0.50;0.50;;;-6.40;91.00;;;;;;5073855;28;20185;-67
2022/12/18 07:40:29;;;;;;;0.60;0.60;;;-6.40;91.10;;;;;;5074141;28;20166;-66
2022/12/18 07:42:54;;;;;;;0.70;0.70;;;-6.40;91.20;;;;;;5073819;28;20169;-68
2022/12/18 07:45:20;;;;;;;0.90;0.90;;;-6.30;91.30;;;;;;5073210;28;20197;-66
2022/12/18 07:47:46;;;;;;;0.40;0.40;;;-6.30;91.50;;;;;;5073033;28;20631;-67
2022/12/18 07:50:12;;;;;;;0.40;0.40;;;-6.20;91.00;;;;;;5073758;28;20193;-67
2022/12/18 07:52:38;;;;;;;0.60;0.60;;;-6.10;91.00;;;;;;5073804;28;20240;-67
2022/12/18 07:55:04;;;;;;;0.60;0.60;;;-6.10;90.90;;;;;;5073413;28;20252;-67
2022/12/18 07:57:30;;;;;;;0.93;0.93;;;-6.10;91.00;;;;;;5073717;28;20161;-67
2022/12/18 07:59:55;;;;;;;0.80;0.80;;;-6.00;91.20;;;;;;5073293;28;20589;-67
2022/12/18 08:02:21;;;;;;;0.50;0.50;;;-6.00;91.20;;;;;;5073403;28;20168;-67
2022/12/18 08:04:47;;;;;;;0.63;0.63;;;-5.90;91.20;;;;;;5073230;28;20645;-67
2022/12/18 08:07:13;;;;;;;0.80;0.80;;;-5.90;91.00;;;;;;5073701;28;20161;-67
2022/12/18 08:09:38;;;;;;;0.77;0.77;;;-5.90;91.00;;;;;;5073680;28;20548;-67
2022/12/18 08:12:04;;;;;;;0.70;0.70;;;-5.90;91.20;;;;;;5073719;28;20162;-66
2022/12/18 08:14:30;;;;;;;0.80;0.80;;;-5.70;91.70;;;;;;5073109;28;20170;-67
2022/12/18 08:16:56;;;;;;;0.70;0.70;;;-5.00;92.90;;;;;;5073314;28;20170;-68
2022/12/18 08:19:21;;;;;;;2.23;2.13;;;-4.20;93.10;;;;;;5073434;28;20220;-67
2022/12/18 08:21:47;;;;;;;0.83;0.83;;;-3.30;92.30;;;;;;5072332;28;20639;-66
2022/12/18 08:24:12;;;;;;;0.40;0.40;;;-2.50;91.30;;;;;;5073330;28;20611;-67
2022/12/18 08:26:38;;;;;;;1.58;0.85;;;-1.70;90.40;;;;;;5073713;28;20246;-67
2022/12/18 08:29:04;;;;;;;1.77;1.77;;;-1.00;89.30;;;;;;5073255;28;20661;-67
2022/12/18 08:31:30;;;;;;;0.87;0.87;;;-0.30;87.70;;;;;;5073232;28;20176;-67
2022/12/18 08:33:57;;;;;;;0.30;0.30;;;0.10;83.60;;;;;;5073376;28;20198;-67
2022/12/18 08:36:24;;;;;;;0.50;0.50;;;0.40;81.70;;;;;;5072942;28;20220;-67
2022/12/18 08:38:49;;;;;;;1.33;1.30;;;0.50;76.60;;;;;;5073610;28;20214;-67
2022/12/18 08:41:17;;;;;;;1.13;1.13;;;0.60;74.50;;;;;;5073484;28;20183;-66
2022/12/18 08:46:33;;;;;;;1.92;1.92;;;1.40;75.00;;;;;;5073615;28;20192;-67
2022/12/18 08:48:59;;;;;;;0.52;0.52;;;2.40;74.10;;;;;;5073007;28;20205;-67
2022/12/18 08:51:24;;;;;;;2.10;2.00;;;3.00;70.20;;;;;;5073556;28;20220;-67
2022/12/18 08:53:50;;;;;;;1.07;0.97;;;3.40;68.40;;;;;;5072957;28;20169;-67
2022/12/18 08:56:16;;;;;;;1.43;1.33;;;3.60;66.70;;;;;;5072784;28;20232;-66
2022/12/18 08:58:42;;;;;;;2.95;1.83;;;3.80;67.00;;;;;;5072945;28;20193;-67
2022/12/18 09:01:10;;;;;;;3.55;3.28;;;4.10;68.60;;;;;;5075933;28;20205;-67
2022/12/18 09:03:36;;;;;;;4.20;2.47;;;4.70;65.90;;;;;;5076502;28;20172;-67
2022/12/18 09:06:02;;;;;;;2.00;1.90;;;5.30;63.40;;;;;;5076331;28;20226;-67
2022/12/18 09:08:28;;;;;;;3.17;2.78;;;6.10;60.00;;;;;;5076337;28;20193;-68
2022/12/18 09:10:54;;;;;;;2.27;2.13;;;6.80;58.80;;;;;;5076367;28;20169;-69
2022/12/18 09:13:21;;;;;;;1.60;1.60;;;7.60;55.70;;;;;;5076317;28;20783;-67
2022/12/18 09:15:49;;;;;;;2.50;2.40;;;8.50;53.20;;;;;;5075043;28;20469;-67
2022/12/18 09:18:16;;;;;;;1.97;1.90;;;9.60;50.90;;;;;;5076558;28;20404;-69
2022/12/18 09:20:42;;;;;;;2.87;1.57;;;10.50;46.60;;;;;;5076696;28;20408;-67
2022/12/18 09:23:09;;;;;;;1.00;1.00;;;11.20;44.00;;;;;;5076242;28;20738;-69
2022/12/18 09:25:35;;;;;;;2.03;1.93;;;11.50;41.60;;;;;;5075945;28;20406;-68
2022/12/18 09:28:06;;;;;;;1.97;1.77;;;11.60;40.90;;;;;;5076094;28;20449;-68
2022/12/18 09:30:35;;;;;;;1.20;1.20;;;11.70;40.80;;;;;;5076341;28;20411;-67
2022/12/18 09:33:01;;;;;;;1.80;1.63;;;11.80;39.80;;;;;;5076352;28;20407;-69
2022/12/18 09:35:27;;;;;;;1.67;1.57;;;12.10;39.30;;;;;;5075732;28;20408;-68
2022/12/18 09:37:53;;;;;;;3.50;1.43;;;12.30;38.90;;;;;;5075633;28;20212;-69
2022/12/18 09:40:23;;;;;;;6.50;2.70;;;12.40;38.00;;;;;;5075928;28;20935;-67
2022/12/18 09:42:55;;;;;;;2.90;2.53;;;12.60;38.50;;;;;;5075931;28;20423;-67
2022/12/18 09:45:22;;;;;;;2.13;2.03;;;13.00;37.90;;;;;;5075570;28;20412;-66
2022/12/18 09:47:51;;;;;;;2.90;2.33;;;13.60;37.60;;;;;;5075857;28;20487;-66
2022/12/18 09:50:31;;;;;;;2.40;1.67;;;14.00;36.60;;;;;;5075526;28;20518;-66
2022/12/18 09:53:04;;;;;;;4.60;1.90;;;14.20;36.20;;;;;;5075820;28;20399;-66
2022/12/18 09:55:42;;;;;;;3.43;2.87;;;14.50;36.20;;;;;;5075778;28;20407;-66
2022/12/18 09:58:20;;;;;;;2.93;2.73;;;15.00;35.20;;;;;;5075944;28;20408;-66
2022/12/18 10:00:46;;;;;;;4.33;3.60;;;15.50;35.10;;;;;;5075410;28;20399;-65
2022/12/18 10:03:14;;;;;;;2.63;1.33;;;15.70;33.70;;;;;;5075820;28;20869;-66
2022/12/18 10:05:45;;;;;;;2.23;2.03;;;15.60;33.40;;;;;;5075474;28;20177;-67
2022/12/18 10:08:45;;;;;;;3.80;2.00;;;15.40;33.90;;;;;;5075303;28;20443;-66
2022/12/18 10:11:33;;;;;;;1.90;1.70;;;15.40;34.90;;;;;;5073463;28;20409;-66
2022/12/18 10:14:40;;;;;;;1.60;1.50;;;15.50;34.30;;;;;;5075088;28;20426;-67
2022/12/18 10:17:30;;;;;;;1.73;1.63;;;15.50;34.40;;;;;;5073672;28;20413;-67
2022/12/18 10:20:04;;;;;;;1.90;1.80;;;15.50;34.40;;;;;;5073446;28;20474;-67
2022/12/18 10:22:47;;;;;;;1.77;1.67;;;15.40;34.70;;;;;;5075021;28;20771;-67
2022/12/18 10:25:27;;;;;;;2.70;2.50;;;15.20;34.60;;;;;;5074689;28;20416;-66
2022/12/18 10:28:00;;;;;;;1.63;1.20;;;14.90;35.00;;;;;;5074874;28;20411;-67
2022/12/18 10:30:26;;;;;;;2.17;2.07;;;14.50;35.80;;;;;;5074553;28;20484;-66
2022/12/18 10:32:53;;;;;;;1.77;1.67;;;14.00;36.20;;;;;;5074486;28;20410;-67
2022/12/18 10:35:26;;;;;;;2.93;2.10;;;13.70;36.60;;;;;;5074424;28;20466;-67
2022/12/18 10:38:16;;;;;;;2.33;2.23;;;13.40;37.00;;;;;;5074432;28;20501;-67
2022/12/18 10:41:13;;;;;;;2.87;2.70;;;13.20;37.60;;;;;;5074710;28;20385;-67
2022/12/18 10:43:40;;;;;;;2.80;2.60;;;12.90;37.90;;;;;;5074596;28;20399;-68
2022/12/18 10:46:08;;;;;;;2.40;2.23;;;12.50;38.40;;;;;;5074091;28;20407;-67
2022/12/18 10:48:55;;;;;;;3.90;3.43;;;12.10;38.50;;;;;;5074344;28;20464;-67
2022/12/18 10:51:35;;;;;;;4.10;3.57;;;11.70;38.90;;;;;;5074140;28;20760;-67
2022/12/18 10:54:03;;;;;;;2.67;2.47;;;11.20;39.90;;;;;;5073924;28;20407;-67
2022/12/18 10:56:30;;;;;;;2.10;1.87;;;10.60;41.60;;;;;;5074256;28;20445;-66
2022/12/18 10:59:00;;;;;;;1.37;1.37;;;9.60;44.60;;;;;;5074093;28;20783;-67
2022/12/18 11:01:26;;;;;;;1.20;1.15;;;9.00;46.50;;;;;;5073969;28;20407;-67
2022/12/18 11:03:55;;;;;;;3.10;1.77;;;8.40;48.00;;;;;;5073858;28;20248;-67
2022/12/18 11:06:24;;;;;;;1.13;1.08;;;7.90;48.80;;;;;;5073700;28;20254;-67
2022/12/18 11:09:21;;;;;;;1.13;1.02;;;7.40;49.70;;;;;;5073977;28;20205;-67
2022/12/18 11:11:53;;;;;;;0.80;0.80;;;6.90;51.40;;;;;;5074144;28;20191;-66
2022/12/18 11:14:23;;;;;;;1.70;1.60;;;6.50;52.90;;;;;;5073756;28;20649;-67
2022/12/18 11:16:50;;;;;;;1.20;1.10;;;6.10;54.10;;;;;;5073863;28;20251;-67
2022/12/18 11:19:39;;;;;;;2.35;1.45;;;5.90;55.50;;;;;;5073593;28;20198;-67
2022/12/18 11:22:28;;;;;;;0.52;0.52;;;5.70;56.10;;;;;;5073432;28;20639;-67
2022/12/18 11:25:17;;;;;;;2.20;1.00;;;5.50;56.50;;;;;;5073655;28;20180;-67
2022/12/18 11:27:49;;;;;;;1.30;1.27;;;5.20;57.40;;;;;;5073859;28;20176;-67
2022/12/18 11:30:28;;;;;;;1.83;1.35;;;5.10;58.40;;;;;;5072381;28;20193;-67
2022/12/18 11:33:19;;;;;;;2.13;1.50;;;5.00;59.80;;;;;;5073634;28;20161;-67
2022/12/18 11:35:55;;;;;;;0.63;0.63;;;4.80;61.30;;;;;;5073486;28;20177;-67
2022/12/18 11:38:28;;;;;;;0.50;0.50;;;4.70;62.80;;;;;;5073746;28;20175;-66
2022/12/18 11:41:04;;;;;;;1.08;1.05;;;4.70;64.00;;;;;;5073758;28;20289;-67
2022/12/18 11:43:42;;;;;;;2.42;1.35;;;4.60;64.20;;;;;;5073721;28;20169;-67
2022/12/18 11:46:13;;;;;;;1.67;1.58;;;4.50;64.10;;;;;;5073235;28;20587;-68
2022/12/18 11:48:47;;;;;;;0.93;0.93;;;4.40;65.70;;;;;;5072503;28;20198;-69
2022/12/18 11:51:25;;;;;;;0.50;0.50;;;4.30;65.90;;;;;;5073767;28;20184;-70
2022/12/18 11:53:51;;;;;;;0.63;0.63;;;4.20;67.40;;;;;;5072436;28;20665;-69
2022/12/18 11:56:34;;;;;;;1.25;1.25;;;4.20;69.00;;;;;;5073239;28;20166;-69
2022/12/18 11:59:18;;;;;;;1.50;1.40;;;4.20;70.30;;;;;;5074038;28;20662;-70
2022/12/18 12:01:52;;;;;;;1.10;1.10;;;4.20;72.10;;;;;;5073662;28;20670;-69
2022/12/18 12:04:42;;;;;;;1.42;1.33;;;4.20;73.20;;;;;;5073425;28;20574;-68
2022/12/18 12:07:23;;;;;;;1.95;1.85;;;4.20;73.80;;;;;;5073709;28;20180;-70
2022/12/18 12:10:17;;;;;;;2.05;1.95;;;4.20;74.90;;;;;;5073228;28;20209;-68
2022/12/18 12:13:15;;;;;;;0.70;0.70;;;4.10;76.00;;;;;;5073567;28;20166;-69
2022/12/18 12:16:05;;;;;;;1.65;1.58;;;4.10;76.40;;;;;;5071741;28;20186;-70
2022/12/18 12:18:59;;;;;;;0.70;0.70;;;4.20;77.20;;;;;;5072761;28;20208;-69
2022/12/18 12:22:00;;;;;;;1.58;1.48;;;4.20;78.10;;;;;;5072760;28;20532;-69
2022/12/18 12:24:41;;;;;;;1.08;1.08;;;4.20;79.50;;;;;;5073195;28;20610;-69
2022/12/18 12:27:16;;;;;;;1.70;1.60;;;4.30;80.30;;;;;;5073264;28;20169;-69
2022/12/18 12:30:02;;;;;;;0.82;0.82;;;4.40;80.30;;;;;;5072876;28;20303;-70
2022/12/18 12:32:44;;;;;;;0.40;0.40;;;4.40;79.70;;;;;;5073212;28;20174;-69
2022/12/18 12:35:47;;;;;;;2.28;2.00;;;4.40;79.60;;;;;;5075726;28;20173;-69
2022/12/18 12:38:19;;;;;;;0.70;0.70;;;4.40;80.30;;;;;;5076794;28;20188;-69
2022/12/18 12:40:57;;;;;;;1.42;1.42;;;4.50;81.40;;;;;;5076838;28;20162;-70
2022/12/18 12:43:44;;;;;;;1.83;1.70;;;4.50;82.00;;;;;;5077101;28;20583;-70
2022/12/18 12:46:12;;;;;;;0.50;0.50;;;4.70;82.10;;;;;;5075480;28;20642;-70
2022/12/18 12:48:49;;;;;;;1.65;1.63;;;4.70;81.70;;;;;;5076336;28;20569;-70
2022/12/18 12:51:36;;;;;;;2.65;2.55;;;4.80;82.20;;;;;;5076582;28;20258;-70
2022/12/18 12:54:06;;;;;;;0.95;0.95;;;4.80;81.70;;;;;;5076534;28;20177;-70
2022/12/18 12:57:14;;;;;;;1.73;1.63;;;4.90;81.20;;;;;;5076517;28;20169;-69
2022/12/18 12:59:58;;;;;;;0.68;0.68;;;4.80;81.70;;;;;;5076165;28;20205;-70
2022/12/18 13:02:43;;;;;;;1.77;1.67;;;4.80;82.50;;;;;;5076341;28;20533;-69
2022/12/18 13:05:49;;;;;;;0.60;0.52;;;4.80;82.50;;;;;;5076186;28;20161;-70
2022/12/18 13:08:45;;;;;;;1.92;1.48;;;4.70;83.00;;;;;;5076393;28;20200;-69
2022/12/18 13:14:27;;;;;;;5.10;1.88;;;4.50;84.80;;;;;;5076261;28;20628;-69
2022/12/18 13:17:25;;;;;;;0.60;0.60;;;4.50;85.50;;;;;;5076127;28;20219;-70
2022/12/18 13:19:52;;;;;;;0.50;0.50;;;4.40;86.40;;;;;;5076023;28;20202;-69